Time;durP1;ratioP1;P1;durP2;ratioP2;P2;SDS_P1;SDS_P2;PMS_P1;PMS_P2;Temp;Humidity;BMP_temperature;BMP_pressure;BME280_temperature;BME280_humidity;BME280_pressure;Samples;Min_cycle;Max_cycle;Signal;HPM_P1;HPM_P2
2023/06/19 00:01:30;;;;;;;9.30;6.63;;;;;;;;;;6214602;28;20286;-74
2023/06/19 00:04:33;;;;;;;7.03;6.30;;;;;;;;;;6215408;28;20050;-75
2023/06/19 00:07:38;;;;;;;10.02;6.65;;;;;;;;;;6216014;28;20494;-75
2023/06/19 00:10:42;;;;;;;8.00;5.90;;;;;;;;;;6218497;28;21140;-74
2023/06/19 00:13:47;;;;;;;8.65;6.80;;;;;;;;;;6212373;28;20054;-76
2023/06/19 00:16:50;;;;;;;9.20;6.82;;;;;;;;;;6216077;28;20401;-74
2023/06/19 00:19:53;;;;;;;8.13;6.57;;;;;;;;;;6218901;28;20120;-74
2023/06/19 00:22:54;;;;;;;;;;;;;;;;;;6216341;28;20050;-74
2023/06/19 00:25:56;;;;;;;9.15;6.53;;;;;;;;;;6215876;28;19968;-75
2023/06/19 00:28:58;;;;;;;9.25;7.00;;;;;;;;;;6217304;28;20058;-75
2023/06/19 00:32:00;;;;;;;8.32;7.40;;;;;;;;;;6217080;28;20276;-74
2023/06/19 00:35:04;;;;;;;10.48;7.00;;;;;;;;;;6213822;28;20325;-74
2023/06/19 00:38:06;;;;;;;7.90;7.10;;;;;;;;;;6220982;28;20092;-74
2023/06/19 00:41:09;;;;;;;7.53;6.80;;;;;;;;;;6222195;28;20065;-74
2023/06/19 00:44:11;;;;;;;11.80;8.05;;;;;;;;;;6221136;28;20057;-74
2023/06/19 00:47:12;;;;;;;9.30;7.13;;;;;;;;;;6220696;28;20073;-74
2023/06/19 00:50:16;;;;;;;10.18;7.38;;;;;;;;;;6218253;28;20215;-74
2023/06/19 00:53:18;;;;;;;8.07;6.80;;;;;;;;;;6221019;28;20085;-74
2023/06/19 00:56:20;;;;;;;8.75;7.05;;;;;;;;;;6215874;28;20061;-74
2023/06/19 00:59:22;;;;;;;9.93;7.50;;;;;;;;;;6220865;28;20058;-74
2023/06/19 01:02:24;;;;;;;8.93;7.05;;;;;;;;;;6219878;28;20346;-73
2023/06/19 01:05:27;;;;;;;8.60;6.72;;;;;;;;;;6218442;28;20082;-75
2023/06/19 01:08:43;;;;;;;9.13;7.75;;;;;;;;;;6219839;28;20057;-74
2023/06/19 01:11:48;;;;;;;8.02;7.20;;;;;;;;;;6219622;28;20034;-75
2023/06/19 01:14:55;;;;;;;9.13;6.88;;;;;;;;;;6218909;28;20050;-75
2023/06/19 01:17:59;;;;;;;9.32;7.32;;;;;;;;;;6219278;28;20057;-75
2023/06/19 01:21:11;;;;;;;8.35;7.28;;;;;;;;;;6221615;28;20088;-74
2023/06/19 01:24:15;;;;;;;8.18;7.38;;;;;;;;;;6219792;28;20337;-74
2023/06/19 01:27:16;;;;;;;7.10;6.40;;;;;;;;;;6215137;28;20046;-74
2023/06/19 01:30:18;;;;;;;8.85;7.40;;;;;;;;;;6219680;28;20058;-74
2023/06/19 01:33:25;;;;;;;9.73;7.03;;;;;;;;;;6221139;28;20061;-74
2023/06/19 01:36:27;;;;;;;9.48;7.22;;;;;;;;;;6217895;28;20289;-74
2023/06/19 01:39:31;;;;;;;8.30;7.25;;;;;;;;;;6219487;28;20097;-74
2023/06/19 01:42:33;;;;;;;10.85;6.63;;;;;;;;;;6217541;28;20069;-75
2023/06/19 01:45:35;;;;;;;8.63;7.10;;;;;;;;;;6215929;28;20057;-74
2023/06/19 01:48:38;;;;;;;8.02;7.22;;;;;;;;;;6219770;28;20826;-73
2023/06/19 01:51:40;;;;;;;8.85;6.90;;;;;;;;;;6216044;28;20058;-74
2023/06/19 01:54:43;;;;;;;8.10;6.40;;;;;;;;;;6219341;28;20241;-75
2023/06/19 01:57:45;;;;;;;7.70;6.28;;;;;;;;;;6217262;28;20172;-74
2023/06/19 02:00:47;;;;;;;10.43;7.00;;;;;;;;;;6217148;28;20717;-75
2023/06/19 02:03:49;;;;;;;8.52;6.55;;;;;;;;;;6216890;28;20105;-74
2023/06/19 02:06:51;;;;;;;7.25;6.50;;;;;;;;;;6214207;28;20076;-74
2023/06/19 02:09:54;;;;;;;8.23;6.53;;;;;;;;;;6220069;28;20085;-74
2023/06/19 02:12:55;;;;;;;8.35;6.00;;;;;;;;;;6217170;28;20100;-74
2023/06/19 02:15:57;;;;;;;7.45;6.68;;;;;;;;;;6217940;28;20046;-74
2023/06/19 02:19:00;;;;;;;8.68;6.47;;;;;;;;;;6216567;28;20215;-74
2023/06/19 02:22:01;;;;;;;11.23;6.40;;;;;;;;;;6217563;28;20050;-74
2023/06/19 02:25:05;;;;;;;7.13;6.43;;;;;;;;;;6218564;28;20054;-74
2023/06/19 02:28:07;;;;;;;7.45;5.75;;;;;;;;;;6216975;28;20276;-77
2023/06/19 02:31:08;;;;;;;7.38;5.85;;;;;;;;;;6214972;28;20046;-75
2023/06/19 02:34:10;;;;;;;7.10;6.32;;;;;;;;;;6219153;28;20390;-74
2023/06/19 02:37:12;;;;;;;7.30;6.03;;;;;;;;;;6215882;28;20050;-75
2023/06/19 02:40:15;;;;;;;8.82;6.38;;;;;;;;;;6217592;28;20046;-73
2023/06/19 02:43:16;;;;;;;;;;;;;;;;;;6215641;28;20081;-74
2023/06/19 02:46:18;;;;;;;8.18;6.85;;;;;;;;;;6215274;28;19932;-74
2023/06/19 02:49:20;;;;;;;7.63;6.00;;;;;;;;;;6221385;28;20068;-76
2023/06/19 02:52:22;;;;;;;6.43;5.78;;;;;;;;;;6217171;28;20058;-74
2023/06/19 02:55:25;;;;;;;6.57;5.35;;;;;;;;;;6215272;28;20113;-74
2023/06/19 02:58:27;;;;;;;7.45;5.47;;;;;;;;;;6218031;28;20073;-74
2023/06/19 03:01:29;;;;;;;5.60;5.10;;;;;;;;;;6215534;28;20113;-75
2023/06/19 03:04:30;;;;;;;5.40;4.90;;;;;;;;;;6215538;28;20357;-74
2023/06/19 03:07:32;;;;;;;8.27;5.30;;;;;;;;;;6215995;28;20061;-75
2023/06/19 03:10:35;;;;;;;5.85;5.07;;;;;;;;;;6219331;28;20064;-75
2023/06/19 03:13:45;;;;;;;7.72;4.60;;;;;;;;;;6217825;28;20046;-74
2023/06/19 03:16:47;;;;;;;5.07;4.50;;;;;;;;;;6215922;28;20062;-74
2023/06/19 03:19:49;;;;;;;5.30;4.78;;;;;;;;;;6215691;28;20078;-74
2023/06/19 03:22:51;;;;;;;6.18;4.82;;;;;;;;;;6215419;28;20058;-74
2023/06/19 03:25:54;;;;;;;5.55;4.50;;;;;;;;;;6215176;28;20053;-74
2023/06/19 03:28:56;;;;;;;5.30;4.50;;;;;;;;;;6216953;28;20349;-77
2023/06/19 03:31:57;;;;;;;5.15;4.63;;;;;;;;;;6214159;28;20267;-74
2023/06/19 03:34:59;;;;;;;5.32;4.30;;;;;;;;;;6213349;28;20389;-75
2023/06/19 03:38:01;;;;;;;5.55;4.50;;;;;;;;;;6216741;28;20068;-74
2023/06/19 03:41:04;;;;;;;6.18;4.10;;;;;;;;;;6212962;28;20054;-74
2023/06/19 03:44:05;;;;;;;8.23;4.28;;;;;;;;;;6213939;28;20100;-74
2023/06/19 03:47:07;;;;;;;7.88;4.30;;;;;;;;;;6212853;28;20053;-74
2023/06/19 03:50:10;;;;;;;5.93;4.13;;;;;;;;;;6217756;28;20058;-73
2023/06/19 03:53:12;;;;;;;9.27;4.30;;;;;;;;;;6213067;28;20046;-74
2023/06/19 03:56:15;;;;;;;7.55;4.40;;;;;;;;;;6213595;28;20294;-74
2023/06/19 03:59:17;;;;;;;6.85;4.43;;;;;;;;;;6214220;28;20050;-73
2023/06/19 04:02:18;;;;;;;5.75;4.68;;;;;;;;;;6215554;28;20282;-77
2023/06/19 04:05:20;;;;;;;6.72;4.05;;;;;;;;;;6216385;28;20065;-74
2023/06/19 04:08:22;;;;;;;6.88;4.68;;;;;;;;;;6215152;28;20135;-77
2023/06/19 04:11:25;;;;;;;5.35;4.45;;;;;;;;;;6218019;28;20266;-73
2023/06/19 04:14:26;;;;;;;9.25;5.03;;;;;;;;;;6214568;28;20042;-74
2023/06/19 04:17:28;;;;;;;6.22;4.82;;;;;;;;;;6215246;28;20103;-74
2023/06/19 04:20:30;;;;;;;5.18;4.60;;;;;;;;;;6213691;28;20054;-74
2023/06/19 04:23:31;;;;;;;6.30;5.15;;;;;;;;;;6213323;28;20042;-74
2023/06/19 04:26:34;;;;;;;4.63;4.22;;;;;;;;;;6214895;28;20069;-74
2023/06/19 04:29:36;;;;;;;6.28;4.88;;;;;;;;;;6213077;28;20201;-74
2023/06/19 04:32:40;;;;;;;7.38;5.32;;;;;;;;;;6214035;28;20369;-76
2023/06/19 04:35:41;;;;;;;5.55;5.00;;;;;;;;;;6214800;28;20054;-74
2023/06/19 04:38:44;;;;;;;6.53;5.40;;;;;;;;;;6214310;28;20270;-74
2023/06/19 04:41:46;;;;;;;5.90;4.75;;;;;;;;;;6213900;28;20109;-74
2023/06/19 04:44:48;;;;;;;6.38;5.05;;;;;;;;;;6215577;28;21218;-74
2023/06/19 04:47:50;;;;;;;5.63;5.00;;;;;;;;;;6211593;28;20050;-74
2023/06/19 04:50:52;;;;;;;5.78;4.90;;;;;;;;;;6214088;28;20380;-74
2023/06/19 04:53:54;;;;;;;5.80;5.03;;;;;;;;;;6213909;28;20348;-75
2023/06/19 04:56:57;;;;;;;6.57;5.10;;;;;;;;;;6214963;28;20066;-75
2023/06/19 04:59:59;;;;;;;6.90;5.03;;;;;;;;;;6218632;28;20155;-75
2023/06/19 05:03:00;;;;;;;6.13;4.78;;;;;;;;;;6213224;28;20057;-75
2023/06/19 05:06:02;;;;;;;5.38;4.78;;;;;;;;;;6215398;28;20058;-77
2023/06/19 05:09:04;;;;;;;6.28;5.68;;;;;;;;;;6213034;28;20058;-75
2023/06/19 05:12:08;;;;;;;6.25;5.05;;;;;;;;;;6217848;28;20117;-75
2023/06/19 05:15:10;;;;;;;8.93;5.30;;;;;;;;;;6214391;28;20046;-76
2023/06/19 05:18:12;;;;;;;6.85;5.05;;;;;;;;;;6213754;28;20061;-74
2023/06/19 05:21:14;;;;;;;5.60;4.88;;;;;;;;;;6214436;28;20050;-75
2023/06/19 05:24:15;;;;;;;7.70;4.85;;;;;;;;;;6216232;28;20066;-74
2023/06/19 05:27:18;;;;;;;6.97;5.68;;;;;;;;;;6218556;28;20329;-75
2023/06/19 05:30:20;;;;;;;5.25;4.72;;;;;;;;;;6221574;28;20050;-75
2023/06/19 05:33:23;;;;;;;7.47;5.05;;;;;;;;;;6222887;28;20380;-74
2023/06/19 05:36:25;;;;;;;5.55;5.05;;;;;;;;;;6226857;28;20083;-74
2023/06/19 05:39:26;;;;;;;6.93;5.35;;;;;;;;;;6224494;28;20054;-76
2023/06/19 05:42:29;;;;;;;6.60;5.25;;;;;;;;;;6219876;28;20091;-75
2023/06/19 05:45:31;;;;;;;7.22;6.10;;;;;;;;;;6222693;28;20103;-75
2023/06/19 05:48:33;;;;;;;8.07;5.50;;;;;;;;;;6220134;28;20270;-74
2023/06/19 05:51:34;;;;;;;6.65;5.45;;;;;;;;;;6223150;28;20065;-74
2023/06/19 05:54:36;;;;;;;8.30;5.65;;;;;;;;;;6219054;28;20042;-74
2023/06/19 05:57:39;;;;;;;10.20;5.50;;;;;;;;;;6224477;28;20058;-76
2023/06/19 06:00:40;;;;;;;6.85;5.32;;;;;;;;;;6224010;28;20057;-74
2023/06/19 06:03:42;;;;;;;7.05;4.35;;;;;;;;;;6218953;28;20247;-75
2023/06/19 06:06:44;;;;;;;9.07;5.90;;;;;;;;;;6219667;28;20072;-76
2023/06/19 06:09:45;;;;;;;7.45;5.47;;;;;;;;;;6214309;28;20112;-75
2023/06/19 06:12:49;;;;;;;5.38;4.60;;;;;;;;;;6212115;28;20049;-75
2023/06/19 06:15:51;;;;;;;7.00;5.80;;;;;;;;;;6215947;28;20310;-75
2023/06/19 06:18:52;;;;;;;6.47;5.38;;;;;;;;;;6216596;28;20054;-75
2023/06/19 06:21:54;;;;;;;6.28;5.15;;;;;;;;;;6217434;28;20132;-76
2023/06/19 06:24:56;;;;;;;6.03;5.30;;;;;;;;;;6215418;28;20054;-79
2023/06/19 06:27:59;;;;;;;7.63;5.65;;;;;;;;;;6218544;28;20057;-76
2023/06/19 06:31:00;;;;;;;6.75;5.80;;;;;;;;;;6216851;28;20061;-72
2023/06/19 06:34:02;;;;;;;7.95;4.80;;;;;;;;;;6219757;28;20058;-75
2023/06/19 06:37:04;;;;;;;6.57;5.22;;;;;;;;;;6216387;28;20279;-72
2023/06/19 06:40:09;;;;;;;8.80;5.75;;;;;;;;;;6219071;28;20103;-76
2023/06/19 06:43:12;;;;;;;7.78;4.90;;;;;;;;;;6215303;28;20053;-72
2023/06/19 06:46:14;;;;;;;6.55;5.40;;;;;;;;;;6216196;28;20046;-72
2023/06/19 06:49:16;;;;;;;10.73;6.00;;;;;;;;;;6218572;28;20141;-71
2023/06/19 06:52:18;;;;;;;9.53;6.13;;;;;;;;;;6213508;28;20122;-75
2023/06/19 06:55:20;;;;;;;9.13;6.30;;;;;;;;;;6216865;28;20043;-73
2023/06/19 06:58:23;;;;;;;10.82;6.03;;;;;;;;;;6216931;28;20062;-73
2023/06/19 07:01:25;;;;;;;10.48;6.43;;;;;;;;;;6216558;28;20058;-74
2023/06/19 07:04:26;;;;;;;10.00;7.07;;;;;;;;;;6214159;28;20050;-74
2023/06/19 07:07:28;;;;;;;8.05;7.18;;;;;;;;;;6215008;28;20103;-74
2023/06/19 07:10:29;;;;;;;8.93;6.35;;;;;;;;;;6219011;28;20317;-71
2023/06/19 07:13:32;;;;;;;11.02;6.75;;;;;;;;;;6213480;28;20249;-71
2023/06/19 07:16:34;;;;;;;7.97;6.68;;;;;;;;;;6215576;28;20057;-73
2023/06/19 07:19:36;;;;;;;8.50;6.65;;;;;;;;;;6215421;28;20053;-73
2023/06/19 07:22:37;;;;;;;9.15;7.45;;;;;;;;;;6212811;28;20050;-71
2023/06/19 07:25:39;;;;;;;8.38;7.45;;;;;;;;;;6214924;28;20343;-71
2023/06/19 07:28:42;;;;;;;9.00;8.00;;;;;;;;;;6216026;28;20081;-72
2023/06/19 07:31:44;;;;;;;9.55;7.82;;;;;;;;;;6215592;28;20104;-73
2023/06/19 07:34:45;;;;;;;8.77;7.88;;;;;;;;;;6215867;28;20072;-74
2023/06/19 07:37:47;;;;;;;10.52;7.20;;;;;;;;;;6213899;28;20081;-73
2023/06/19 07:40:49;;;;;;;8.07;6.75;;;;;;;;;;6218344;28;20361;-73
2023/06/19 07:43:52;;;;;;;7.70;6.57;;;;;;;;;;6211250;28;20069;-73
2023/06/19 07:46:53;;;;;;;10.55;6.22;;;;;;;;;;6212891;28;20055;-74
2023/06/19 07:49:55;;;;;;;14.82;7.50;;;;;;;;;;6218222;28;20396;-73
2023/06/19 07:52:57;;;;;;;9.52;7.50;;;;;;;;;;6215994;28;20077;-75
2023/06/19 07:55:58;;;;;;;9.40;6.30;;;;;;;;;;6216303;28;20061;-73
2023/06/19 07:59:01;;;;;;;6.75;5.18;;;;;;;;;;6217289;28;20323;-74
2023/06/19 08:02:03;;;;;;;6.78;5.57;;;;;;;;;;6215700;28;20050;-76
2023/06/19 08:05:05;;;;;;;7.78;5.97;;;;;;;;;;6217325;28;20227;-74
2023/06/19 08:08:07;;;;;;;11.07;6.37;;;;;;;;;;6217490;28;20273;-73
2023/06/19 08:11:09;;;;;;;9.82;6.70;;;;;;;;;;6213873;28;20056;-73
2023/06/19 08:14:12;;;;;;;8.93;6.00;;;;;;;;;;6216047;28;20061;-75
2023/06/19 08:17:13;;;;;;;10.40;7.05;;;;;;;;;;6212108;28;20054;-73
2023/06/19 08:20:17;;;;;;;9.38;6.05;;;;;;;;;;6216473;28;20046;-74
2023/06/19 08:23:18;;;;;;;9.30;6.10;;;;;;;;;;6212722;28;20318;-73
2023/06/19 08:26:20;;;;;;;12.80;7.70;;;;;;;;;;6212417;28;20054;-73
2023/06/19 08:29:24;;;;;;;10.50;7.40;;;;;;;;;;6217876;28;20054;-74
2023/06/19 08:32:26;;;;;;;10.13;7.35;;;;;;;;;;6215506;28;20058;-75
2023/06/19 08:35:28;;;;;;;8.80;6.00;;;;;;;;;;6215152;28;20054;-74
2023/06/19 08:38:29;;;;;;;7.63;5.95;;;;;;;;;;6214760;28;20274;-73
2023/06/19 08:41:31;;;;;;;8.82;6.20;;;;;;;;;;6215069;28;20049;-73
2023/06/19 08:44:35;;;;;;;6.97;5.88;;;;;;;;;;6213782;28;20054;-77
2023/06/19 08:47:37;;;;;;;8.45;5.95;;;;;;;;;;6215366;28;20360;-74
2023/06/19 08:50:41;;;;;;;6.63;5.93;;;;;;;;;;6212823;28;20051;-74
2023/06/19 08:53:46;;;;;;;10.85;6.60;;;;;;;;;;6200022;28;20047;-74
2023/06/19 08:56:48;;;;;;;9.27;6.25;;;;;;;;;;6215067;28;20049;-74
2023/06/19 08:59:52;;;;;;;8.80;6.47;;;;;;;;;;6217654;28;20341;-75
2023/06/19 09:02:58;;;;;;;7.90;6.05;;;;;;;;;;6216810;28;20465;-74
2023/06/19 09:06:04;;;;;;;7.60;5.88;;;;;;;;;;6220979;28;20364;-72
2023/06/19 09:09:10;;;;;;;9.23;5.82;;;;;;;;;;6219764;28;20092;-72
2023/06/19 09:12:14;;;;;;;5.57;5.07;;;;;;;;;;6220356;28;20058;-72
2023/06/19 09:15:17;;;;;;;9.43;6.35;;;;;;;;;;6191235;28;20050;-72
2023/06/19 09:18:20;;;;;;;6.95;6.35;;;;;;;;;;6209379;28;20130;-73
2023/06/19 09:21:23;;;;;;;6.03;5.50;;;;;;;;;;6217741;28;20085;-69
2023/06/19 09:24:24;;;;;;;7.88;6.03;;;;;;;;;;6216395;28;20223;-76
2023/06/19 09:27:26;;;;;;;8.27;5.82;;;;;;;;;;6215596;28;20110;-74
2023/06/19 09:30:29;;;;;;;7.38;5.38;;;;;;;;;;6222817;28;20108;-76
2023/06/19 09:33:32;;;;;;;8.57;5.30;;;;;;;;;;6223938;28;20054;-73
2023/06/19 09:36:34;;;;;;;;;;;;;;;;;;6223202;28;20354;-73
2023/06/19 09:39:38;;;;;;;6.93;5.70;;;;;;;;;;6222678;28;19933;-73
2023/06/19 09:42:40;;;;;;;7.97;5.40;;;;;;;;;;6220513;28;20072;-72
2023/06/19 09:45:43;;;;;;;;;;;;;;;;;;6224244;28;20061;-73
2023/06/19 09:48:46;;;;;;;7.90;5.03;;;;;;;;;;6220342;28;19925;-73
2023/06/19 09:51:50;;;;;;;8.95;5.78;;;;;;;;;;6223862;28;20379;-73
2023/06/19 09:54:53;;;;;;;7.05;5.55;;;;;;;;;;6223120;28;20124;-73
2023/06/19 09:57:55;;;;;;;6.97;5.03;;;;;;;;;;6215780;28;20054;-73
2023/06/19 10:00:59;;;;;;;5.57;4.78;;;;;;;;;;6219876;28;20047;-72
2023/06/19 10:04:05;;;;;;;5.80;4.72;;;;;;;;;;6215529;28;20079;-75
2023/06/19 10:07:16;;;;;;;7.40;5.10;;;;;;;;;;6217535;28;20334;-72
2023/06/19 10:10:24;;;;;;;7.57;5.07;;;;;;;;;;6215046;28;20050;-74
2023/06/19 10:13:33;;;;;;;7.00;4.63;;;;;;;;;;6215897;28;20201;-74
2023/06/19 10:16:36;;;;;;;5.63;4.45;;;;;;;;;;6195564;28;20062;-73
2023/06/19 10:19:38;;;;;;;7.95;5.10;;;;;;;;;;6205214;28;20046;-73
2023/06/19 10:22:39;;;;;;;5.70;4.68;;;;;;;;;;6217447;28;20061;-75
2023/06/19 10:25:43;;;;;;;6.28;4.70;;;;;;;;;;6216256;28;20053;-74
2023/06/19 10:28:48;;;;;;;6.55;4.70;;;;;;;;;;6215484;28;20069;-73
2023/06/19 10:31:51;;;;;;;6.00;4.65;;;;;;;;;;6217844;28;20424;-73
2023/06/19 10:34:52;;;;;;;5.50;5.00;;;;;;;;;;6219473;28;20046;-73
2023/06/19 10:37:54;;;;;;;5.43;4.65;;;;;;;;;;6218548;28;20069;-76
2023/06/19 10:40:56;;;;;;;5.38;4.88;;;;;;;;;;6216925;28;20080;-73
2023/06/19 10:44:01;;;;;;;10.60;6.47;;;;;;;;;;6216228;28;20054;-73
2023/06/19 10:47:05;;;;;;;7.18;5.28;;;;;;;;;;6216771;28;20046;-74
2023/06/19 10:50:10;;;;;;;6.25;4.95;;;;;;;;;;6218377;28;20046;-74
2023/06/19 10:53:12;;;;;;;6.88;5.35;;;;;;;;;;6212811;28;20119;-73
2023/06/19 10:56:14;;;;;;;9.85;5.75;;;;;;;;;;6217858;28;20046;-73
2023/06/19 10:59:15;;;;;;;7.50;6.75;;;;;;;;;;6217603;28;20269;-75
2023/06/19 11:02:20;;;;;;;8.55;6.55;;;;;;;;;;6217805;28;20057;-75
2023/06/19 11:05:22;;;;;;;6.40;5.28;;;;;;;;;;6218541;28;20054;-73
2023/06/19 11:08:24;;;;;;;6.63;6.05;;;;;;;;;;6217502;28;20389;-76
2023/06/19 11:11:35;;;;;;;8.35;6.10;;;;;;;;;;6215926;28;20057;-75
2023/06/19 11:14:39;;;;;;;6.87;6.17;;;;;;;;;;6216440;28;20100;-73
2023/06/19 11:17:42;;;;;;;6.43;5.82;;;;;;;;;;6222804;28;20369;-76
2023/06/19 11:20:45;;;;;;;6.10;5.43;;;;;;;;;;6223196;28;20054;-76
2023/06/19 11:23:48;;;;;;;6.18;5.13;;;;;;;;;;6220379;28;20369;-76
2023/06/19 11:26:51;;;;;;;7.72;5.53;;;;;;;;;;6218348;28;20325;-75
2023/06/19 11:29:58;;;;;;;6.43;5.65;;;;;;;;;;6223237;28;20337;-76
2023/06/19 11:33:01;;;;;;;6.15;5.65;;;;;;;;;;6218875;28;20048;-76
2023/06/19 11:36:03;;;;;;;7.55;6.60;;;;;;;;;;6218838;28;20054;-76
2023/06/19 11:39:05;;;;;;;;;;;;;;;;;;6221876;28;20119;-77
2023/06/19 11:42:07;;;;;;;7.10;6.37;;;;;;;;;;6220036;28;19971;-78
2023/06/19 11:45:10;;;;;;;9.57;7.63;;;;;;;;;;6218255;28;20050;-78
2023/06/19 11:48:13;;;;;;;7.20;6.25;;;;;;;;;;6215760;28;20058;-76
2023/06/19 11:51:15;;;;;;;7.60;6.88;;;;;;;;;;6211587;28;20057;-76
2023/06/19 11:54:17;;;;;;;7.67;6.93;;;;;;;;;;6207740;28;20305;-76
2023/06/19 11:57:19;;;;;;;;;;;;;;;;;;6215497;28;20571;-75
2023/06/19 12:00:21;;;;;;;11.20;7.15;;;;;;;;;;6218916;28;20257;-74
2023/06/19 12:03:24;;;;;;;7.78;6.97;;;;;;;;;;6218462;28;20606;-74
2023/06/19 12:06:26;;;;;;;8.20;6.93;;;;;;;;;;6216431;28;20084;-74
2023/06/19 12:09:28;;;;;;;8.40;6.70;;;;;;;;;;6218844;28;20050;-76
2023/06/19 12:12:30;;;;;;;;;;;;;;;;;;6216174;28;20057;-75
2023/06/19 12:15:32;;;;;;;9.70;7.22;;;;;;;;;;6215093;28;19925;-76
2023/06/19 12:18:35;;;;;;;9.63;6.55;;;;;;;;;;6215945;28;20105;-76
2023/06/19 12:21:37;;;;;;;8.88;6.68;;;;;;;;;;6216972;28;20378;-75
2023/06/19 12:24:39;;;;;;;8.10;7.22;;;;;;;;;;6216152;28;20058;-76
2023/06/19 12:27:41;;;;;;;10.15;6.93;;;;;;;;;;6218267;28;20057;-75
2023/06/19 12:30:42;;;;;;;8.40;6.65;;;;;;;;;;6216328;28;20321;-74
2023/06/19 12:33:47;;;;;;;6.65;6.05;;;;;;;;;;6217675;28;20293;-75
2023/06/19 12:36:49;;;;;;;7.43;6.72;;;;;;;;;;6220644;28;20063;-74
2023/06/19 12:39:51;;;;;;;;;;;;;;;;;;6219128;28;20084;-76
2023/06/19 12:42:53;;;;;;;8.60;6.30;;;;;;;;;;6221917;28;19929;-75
2023/06/19 12:45:55;;;;;;;7.03;6.43;;;;;;;;;;6222207;28;20060;-75
2023/06/19 12:48:58;;;;;;;6.70;6.00;;;;;;;;;;6221506;28;20057;-75
2023/06/19 12:52:00;;;;;;;6.60;5.97;;;;;;;;;;6223824;28;20075;-77
2023/06/19 12:55:01;;;;;;;7.40;6.70;;;;;;;;;;6220561;28;20065;-75
2023/06/19 12:58:03;;;;;;;7.00;6.25;;;;;;;;;;6222150;28;20077;-74
2023/06/19 13:01:05;;;;;;;8.60;6.40;;;;;;;;;;6220719;28;20130;-75
2023/06/19 13:04:08;;;;;;;7.93;6.50;;;;;;;;;;6219859;28;20050;-74
2023/06/19 13:07:10;;;;;;;6.90;6.20;;;;;;;;;;6220718;28;20045;-76
2023/06/19 13:10:11;;;;;;;6.40;5.55;;;;;;;;;;6222843;28;20069;-75
2023/06/19 13:13:13;;;;;;;13.82;5.90;;;;;;;;;;6217573;28;20050;-76
2023/06/19 13:16:15;;;;;;;;;;;;;;;;;;6221996;28;20058;-75
2023/06/19 13:19:18;;;;;;;8.45;5.78;;;;;;;;;;6218834;28;19925;-75
2023/06/19 13:22:20;;;;;;;5.78;5.28;;;;;;;;;;6217688;28;20069;-74
2023/06/19 13:25:22;;;;;;;5.95;5.35;;;;;;;;;;6217740;28;20049;-73
2023/06/19 13:28:23;;;;;;;5.00;4.10;;;;;;;;;;6221131;28;20054;-74
2023/06/19 13:31:25;;;;;;;5.00;4.50;;;;;;;;;;6221277;28;20046;-74
2023/06/19 13:34:28;;;;;;;5.38;4.88;;;;;;;;;;6222707;28;20096;-75
2023/06/19 13:37:30;;;;;;;7.28;5.03;;;;;;;;;;6221812;28;20047;-75
2023/06/19 13:40:31;;;;;;;5.75;5.25;;;;;;;;;;6225746;28;20388;-76
2023/06/19 13:43:33;;;;;;;5.57;5.07;;;;;;;;;;6222455;28;20062;-74
2023/06/19 13:46:35;;;;;;;7.63;5.13;;;;;;;;;;6222044;28;20326;-74
2023/06/19 13:49:38;;;;;;;5.38;4.85;;;;;;;;;;6226962;28;20096;-74
2023/06/19 13:52:39;;;;;;;7.53;5.10;;;;;;;;;;6222450;28;20050;-73
2023/06/19 13:55:41;;;;;;;5.93;5.40;;;;;;;;;;6226576;28;20072;-75
2023/06/19 13:58:43;;;;;;;7.45;5.13;;;;;;;;;;6222640;28;20054;-74
2023/06/19 14:01:44;;;;;;;;;;;;;;;;;;6224888;28;20244;-74
2023/06/19 14:04:47;;;;;;;6.72;5.13;;;;;;;;;;6223621;28;19964;-74
2023/06/19 14:07:49;;;;;;;6.13;4.90;;;;;;;;;;6217817;28;20153;-75
2023/06/19 14:10:50;;;;;;;9.23;4.97;;;;;;;;;;6221053;28;20398;-74
2023/06/19 14:13:52;;;;;;;5.35;4.80;;;;;;;;;;6215786;28;20104;-75
2023/06/19 14:16:54;;;;;;;5.95;5.22;;;;;;;;;;6217232;28;20282;-74
2023/06/19 14:19:57;;;;;;;5.53;5.03;;;;;;;;;;6222905;28;20062;-73
2023/06/19 14:22:58;;;;;;;6.45;4.65;;;;;;;;;;6220200;28;20058;-75
2023/06/19 14:26:00;;;;;;;5.70;4.88;;;;;;;;;;6218011;28;20338;-74
2023/06/19 14:29:01;;;;;;;7.68;5.32;;;;;;;;;;6217028;28;20058;-74
2023/06/19 14:32:03;;;;;;;5.40;4.90;;;;;;;;;;6215813;28;20050;-74
2023/06/19 14:35:08;;;;;;;5.43;4.75;;;;;;;;;;6215724;28;20042;-74
2023/06/19 14:38:09;;;;;;;6.53;5.80;;;;;;;;;;6215216;28;20112;-76
2023/06/19 14:41:11;;;;;;;5.90;5.10;;;;;;;;;;6218225;28;20350;-74
2023/06/19 14:44:12;;;;;;;6.30;5.70;;;;;;;;;;6216555;28;20061;-73
2023/06/19 14:47:14;;;;;;;6.00;5.40;;;;;;;;;;6222728;28;20298;-73
2023/06/19 14:50:17;;;;;;;6.00;5.50;;;;;;;;;;6218510;28;20062;-73
2023/06/19 14:53:19;;;;;;;6.57;5.40;;;;;;;;;;6213975;28;20456;-73
2023/06/19 14:56:20;;;;;;;6.13;5.47;;;;;;;;;;6213601;28;20326;-74
2023/06/19 14:59:22;;;;;;;6.40;5.80;;;;;;;;;;6218028;28;20342;-73
2023/06/19 15:02:24;;;;;;;6.82;6.10;;;;;;;;;;6217243;28;20058;-73
2023/06/19 15:05:27;;;;;;;6.38;5.70;;;;;;;;;;6214439;28;20050;-76
2023/06/19 15:08:29;;;;;;;6.80;6.20;;;;;;;;;;6216434;28;20129;-75
2023/06/19 15:11:30;;;;;;;6.68;5.95;;;;;;;;;;6214026;28;20054;-74
2023/06/19 15:14:33;;;;;;;7.97;5.35;;;;;;;;;;6216113;28;20058;-74
2023/06/19 15:17:35;;;;;;;;;;;;;;;;;;6216443;28;20049;-74
2023/06/19 15:20:38;;;;;;;6.88;6.07;;;;;;;;;;6218593;28;20223;-74
2023/06/19 15:23:39;;;;;;;8.15;5.82;;;;;;;;;;6215570;28;20250;-74
2023/06/19 15:26:41;;;;;;;9.23;5.50;;;;;;;;;;6212013;28;20046;-74
2023/06/19 15:29:43;;;;;;;6.82;5.22;;;;;;;;;;6218851;28;20353;-74
2023/06/19 15:32:44;;;;;;;6.57;5.55;;;;;;;;;;6214652;28;20058;-74
2023/06/19 15:35:47;;;;;;;10.20;4.97;;;;;;;;;;6216646;28;20203;-75
2023/06/19 15:38:49;;;;;;;7.75;5.97;;;;;;;;;;6214067;28;20113;-75
2023/06/19 15:41:51;;;;;;;6.53;5.93;;;;;;;;;;6218186;28;20081;-74
2023/06/19 15:44:52;;;;;;;7.78;5.38;;;;;;;;;;6216300;28;20046;-74
2023/06/19 15:47:54;;;;;;;6.00;5.40;;;;;;;;;;6219533;28;20061;-74
2023/06/19 15:50:57;;;;;;;8.48;5.35;;;;;;;;;;6216932;28;20062;-75
2023/06/19 15:53:58;;;;;;;6.75;4.93;;;;;;;;;;6220051;28;20249;-74
2023/06/19 15:57:00;;;;;;;7.23;5.83;;;;;;;;;;6215905;28;20113;-75
2023/06/19 16:00:03;;;;;;;7.27;5.50;;;;;;;;;;6220447;28;20126;-74
2023/06/19 16:03:05;;;;;;;5.82;5.32;;;;;;;;;;6216080;28;20084;-74
2023/06/19 16:06:08;;;;;;;7.20;5.63;;;;;;;;;;6217007;28;20061;-74
2023/06/19 16:09:10;;;;;;;8.27;5.55;;;;;;;;;;6212747;28;20073;-74
2023/06/19 16:12:11;;;;;;;6.95;6.00;;;;;;;;;;6217059;28;20127;-75
2023/06/19 16:15:14;;;;;;;5.70;5.17;;;;;;;;;;6215359;28;20101;-74
2023/06/19 16:18:16;;;;;;;8.55;5.88;;;;;;;;;;6213675;28;20058;-74
2023/06/19 16:21:19;;;;;;;7.13;5.70;;;;;;;;;;6216477;28;20105;-74
2023/06/19 16:24:21;;;;;;;7.65;5.50;;;;;;;;;;6216113;28;20054;-75
2023/06/19 16:27:22;;;;;;;6.57;5.68;;;;;;;;;;6214613;28;20064;-75
2023/06/19 16:30:24;;;;;;;6.22;5.43;;;;;;;;;;6214136;28;20050;-74
2023/06/19 16:33:26;;;;;;;6.72;5.60;;;;;;;;;;6215615;28;20049;-74
2023/06/19 16:36:29;;;;;;;7.40;5.82;;;;;;;;;;6212951;28;20338;-71
2023/06/19 16:39:31;;;;;;;7.75;7.00;;;;;;;;;;6216662;28;20049;-73
2023/06/19 16:42:32;;;;;;;6.57;5.60;;;;;;;;;;6215153;28;20293;-73
2023/06/19 16:45:34;;;;;;;8.05;5.75;;;;;;;;;;6215255;28;20057;-73
2023/06/19 16:48:35;;;;;;;10.32;6.70;;;;;;;;;;6212707;28;20058;-74
2023/06/19 16:51:38;;;;;;;7.35;6.65;;;;;;;;;;6214905;28;20049;-74
2023/06/19 16:54:45;;;;;;;8.35;6.78;;;;;;;;;;6212598;28;20061;-74
2023/06/19 16:57:47;;;;;;;7.05;6.35;;;;;;;;;;6213691;28;20149;-73
2023/06/19 17:00:50;;;;;;;8.80;5.93;;;;;;;;;;6216251;28;20086;-74
2023/06/19 17:03:57;;;;;;;7.00;6.30;;;;;;;;;;6213117;28;20057;-75
2023/06/19 17:07:00;;;;;;;7.80;6.00;;;;;;;;;;6213284;28;20060;-75
2023/06/19 17:10:03;;;;;;;8.90;6.47;;;;;;;;;;6203591;28;20377;-74
2023/06/19 17:13:04;;;;;;;7.72;6.38;;;;;;;;;;6211953;28;20121;-74
2023/06/19 17:16:06;;;;;;;8.23;6.83;;;;;;;;;;6211234;28;20050;-74
2023/06/19 17:19:08;;;;;;;7.15;6.18;;;;;;;;;;6211756;28;20046;-74
2023/06/19 17:22:12;;;;;;;7.65;6.28;;;;;;;;;;6220516;28;20058;-72
2023/06/19 17:25:14;;;;;;;7.07;6.07;;;;;;;;;;6216953;28;20237;-75
2023/06/19 17:28:16;;;;;;;7.82;6.38;;;;;;;;;;6216231;28;20053;-76
2023/06/19 17:31:17;;;;;;;6.90;6.20;;;;;;;;;;6217777;28;21408;-75
2023/06/19 17:34:19;;;;;;;7.07;6.18;;;;;;;;;;6215623;28;20061;-75
2023/06/19 17:37:23;;;;;;;7.30;6.27;;;;;;;;;;6217033;28;20164;-76
2023/06/19 17:40:25;;;;;;;8.23;6.00;;;;;;;;;;6219161;28;20102;-77
2023/06/19 17:43:27;;;;;;;7.47;6.50;;;;;;;;;;6215714;28;20050;-75
2023/06/19 17:46:29;;;;;;;9.18;5.68;;;;;;;;;;6217913;28;20053;-76
2023/06/19 17:49:32;;;;;;;10.13;6.00;;;;;;;;;;6218724;28;20117;-75
2023/06/19 17:52:36;;;;;;;5.72;5.10;;;;;;;;;;6216333;28;20667;-75
2023/06/19 17:55:37;;;;;;;9.05;4.75;;;;;;;;;;6219426;28;20061;-76
2023/06/19 17:58:39;;;;;;;5.57;4.25;;;;;;;;;;6214463;28;20274;-76
2023/06/19 18:01:40;;;;;;;8.35;4.72;;;;;;;;;;6216850;28;20073;-76
2023/06/19 18:04:42;;;;;;;15.13;4.40;;;;;;;;;;6218973;28;20053;-77
2023/06/19 18:07:45;;;;;;;5.15;4.25;;;;;;;;;;6206586;28;20054;-76
2023/06/19 18:10:50;;;;;;;;;;;;;;;;;;6220142;28;20349;-75
2023/06/19 18:13:51;;;;;;;9.77;3.70;;;;;;;;;;6222809;28;19925;-75
2023/06/19 18:16:53;;;;;;;8.23;4.38;;;;;;;;;;6222177;28;20246;-75